Airfield :
LOGIN :

Register | Disclaimer

   EN    FR    IT 

 










Legend :    VFR   Marginal VFR   IFR   Intensive IFR   Very Intensive IFR
Visi :
Ceiling :
>= 8 km
>= 3000ft
5 to 8 km
1000 to 3000 ft
1500m to 5 km
500 to 1000 ft
800 to 1500m
200 to 500 ft
< 800m
< 200 ft
Symbols :   Thunderstorms  Fog  Heavy snow  Heavy precipitations  Wind > 20 kt
SIGMETs :     Misc.  Thunderstorms  Icing  Turbulence  Mountain Waves  Volcanic Ashes






- Airport Elevation : 40 ft
- IATA code : RMI


LIPR - Federico Fellini Int. Rimini

CURRENT METAR :
  • 280750Z 07007KT 040V100 9999 FEW040 24/20 Q1008

EXPIRED METARs :
  • 280720Z 03007KT CAVOK 23/19 Q1008
  • 280650Z 03004KT CAVOK 26/18 Q1008
  • 280620Z 01003KT 340V040 CAVOK 26/17 Q1008
  • 280550Z AUTO VRB02KT 9999 FEW130/// SCT150/// 24/17 Q1008
  • 280520Z AUTO 26003KT 210V290 9999 BKN150/// BKN180/// 23/17 Q1008

TAF TAF LIPR
Valid from the 28 at 06:00 until the 29 at 06:00 UTC


280500Z 2806/2906 35006KT 9999 FEW030 SCT050
BECMG 2810/2812 07013KT
BECMG 2822/2824 VRB05KT
TEMPO 2901/2905 4000 TSRA



MET'MAP, your aeronautical weather chart ! - Copyright ORBIFLY December 2007 - Disclaimer

ORBIFLY MET'MAP TEAM :

Programming & Development : Alexandra Zaïnal
Original concept : Baudouin d'Aumeries
Technical & hardware support : Manuel Goepfert
Assistance : Marc-Olivier Méhu

Contact : metmap@orbifly.com




SOURCES & CREDITS :

   NOAA